North Webster, IN

11:07 AM EST on March 04, 2015 (GMT -0500)
Warsaw Municipal | Change Station
CLOSE
Current Station
Airport
Location: Warsaw,
Elevation: 850 ft
Nearby Weather Stations

Elev 850 ft 41.27 °N, 85.84 °W | Updated 32 minutes ago

Mostly Cloudy
Mostly Cloudy
30 °F
Feels Like 20 °F
N
14
Wind Variable Wind from WNW
Gusts 17 mph

Today
High -- | Low -- °F
--% Chance of Precip.
Yesterday
High -- | Low -- °F
Precip. -- in
7:12 AM 6:36 PM
Waxing Gibbous, 99% visible
Pressure 30.01 in
Visibility 7.0 miles
Clouds Mostly Cloudy 1400 ft
Windchill 20 °F
Dew Point 23 °F
Humidity 75%
Rainfall 0.00 in
Snow Depth Not available.
UV 2 out of 12
Pollen .40 out of 12
Air Quality Not available.
Flu Activity Not available.
METAR KASW 041535Z AUTO 30012G15KT 7SM BKN014 M01/M05 A3001 RMK AO2

More Conditions Fewer Conditions

Pressure 30.01 in
Visibility 7.0 miles
Clouds Mostly Cloudy 1400 ft
Windchill 20 °F
Dew Point 23 °F
Humidity 75%
Rainfall 0.00 in
Snow Depth Not available.
UV 2 out of 12
Pollen .40 out of 12
Air Quality Not available.
Flu Activity Not available.
METAR KASW 041535Z AUTO 30012G15KT 7SM BKN014 M01/M05 A3001 RMK AO2

More Conditions Fewer Conditions

10-Day Weather Forecast

Almanac

Astronomy

Mar. 04, 2015 Rise Set
Actual Time
Civil Twilight
Nautical Twilight
Astronomical Twilight
Moon
Length of Visible Light
Length of Day
Tomorrow will be .
, % of the Moon is Illuminated

Today's Extremes

State Highs State Lows

Community

WunderPhotos

Upload Photos

1,802,502 photos uploaded!

WunderBlogs® & News

Nearby

Air Quality

  Air Quality AQ Index Pollutant
Not available.

Snow Depth

Station Depth Elevation

Earthquake Activity

City Distance Mag. Time & Date
Minimum magnitude displayed is 2.5.

Coastal Water Temperatures

Place Temperature

Nearby Weather Stations